createdAt,value
2022-10-06T00:00:15.208Z,7.71
2022-10-06T00:05:17.885Z,7.59
2022-10-06T00:10:20.490Z,7.70
2022-10-06T00:15:29.379Z,7.76
2022-10-06T00:20:33.186Z,7.71
2022-10-06T00:25:36.294Z,7.69
2022-10-06T00:30:39.029Z,7.68
2022-10-06T00:35:42.278Z,7.66
2022-10-06T00:40:50.388Z,7.76
2022-10-06T00:45:53.224Z,7.73
2022-10-06T00:50:58.405Z,7.76
2022-10-06T00:56:01.013Z,7.81
2022-10-06T01:01:04.287Z,7.89
2022-10-06T01:06:07.736Z,7.81
2022-10-06T01:11:15.692Z,7.72
2022-10-06T01:16:27.012Z,7.69
2022-10-06T01:21:44.898Z,7.66
2022-10-06T01:26:51.948Z,7.82
2022-10-06T01:31:55.634Z,7.90
2022-10-06T01:36:58.321Z,7.89
2022-10-06T01:42:02.424Z,7.86
2022-10-06T01:47:06.891Z,7.70
2022-10-06T01:52:09.719Z,7.65
2022-10-06T01:57:12.337Z,7.72
2022-10-06T02:02:15.036Z,7.68
2022-10-06T02:07:17.752Z,7.70
2022-10-06T02:12:22.024Z,7.67
2022-10-06T02:17:24.999Z,7.54
2022-10-06T02:22:28.413Z,7.63
2022-10-06T02:27:31.124Z,7.65
2022-10-06T02:32:37.390Z,7.77
2022-10-06T02:37:41.676Z,7.71
2022-10-06T02:42:46.990Z,7.61
2022-10-06T02:47:56.882Z,7.71
2022-10-06T02:52:59.457Z,7.76
2022-10-06T02:58:03.724Z,7.68
2022-10-06T03:03:06.441Z,7.75
2022-10-06T03:08:10.824Z,7.55
2022-10-06T03:13:13.622Z,7.67
2022-10-06T03:18:16.247Z,7.94
2022-10-06T03:23:19.314Z,8.09
2022-10-06T03:28:22.959Z,8.21
2022-10-06T03:33:25.792Z,8.27
2022-10-06T03:38:31.416Z,8.33
2022-10-06T03:43:35.831Z,8.36
2022-10-06T03:48:38.927Z,8.31
2022-10-06T03:53:47.332Z,8.29
2022-10-06T03:59:00.276Z,8.38
2022-10-06T04:04:05.145Z,8.22
2022-10-06T04:09:15.374Z,8.34
2022-10-06T04:14:19.002Z,8.10
2022-10-06T04:19:22.208Z,8.29
2022-10-06T04:24:28.060Z,8.45
2022-10-06T04:29:32.810Z,8.60
2022-10-06T04:34:35.597Z,8.66
2022-10-06T04:39:39.069Z,8.71
2022-10-06T04:44:42.809Z,8.60
2022-10-06T04:49:45.718Z,8.53
2022-10-06T04:54:49.203Z,8.78
2022-10-06T05:00:14.784Z,8.86
2022-10-06T05:05:20.100Z,8.57
2022-10-06T05:10:23.916Z,8.77
2022-10-06T05:15:28.288Z,8.59
2022-10-06T05:20:31.288Z,8.84
2022-10-06T05:25:34.404Z,9.11
2022-10-06T05:30:37.840Z,9.20
2022-10-06T05:35:51.733Z,9.06
2022-10-06T05:41:06.773Z,9.08
2022-10-06T05:46:23.863Z,9.05
2022-10-06T05:51:31.439Z,9.37
2022-10-06T05:56:38.385Z,9.68
2022-10-06T06:01:43.096Z,9.93
2022-10-06T06:06:58.524Z,9.87
2022-10-06T06:12:02.786Z,9.92
2022-10-06T06:17:14.030Z,10.05
2022-10-06T06:22:16.822Z,9.88
2022-10-06T06:27:21.597Z,9.66
2022-10-06T06:32:25.109Z,9.78
2022-10-06T06:37:31.477Z,9.88
2022-10-06T06:42:35.305Z,10.21
2022-10-06T06:48:02.507Z,10.76
2022-10-06T06:53:07.141Z,10.84
2022-10-06T06:58:12.774Z,10.98
2022-10-06T07:03:38.459Z,11.13
2022-10-06T07:08:43.650Z,11.38
2022-10-06T07:13:50.791Z,11.11
2022-10-06T07:19:12.385Z,11.05
2022-10-06T07:24:34.385Z,11.08
2022-10-06T07:29:37.230Z,11.51
2022-10-06T07:39:49.780Z,11.34
2022-10-06T07:45:11.606Z,10.96
2022-10-06T07:50:16.193Z,10.95
2022-10-06T07:55:19.167Z,10.85
2022-10-06T08:00:53.107Z,10.99
2022-10-06T08:06:00.665Z,11.22
2022-10-06T08:11:04.927Z,11.02
2022-10-06T08:16:19.836Z,10.98
2022-10-06T08:21:35.694Z,11.60
2022-10-06T08:26:38.976Z,11.77
2022-10-06T08:31:42.225Z,11.41
2022-10-06T08:37:08.649Z,11.67
2022-10-06T08:42:50.605Z,11.59
2022-10-06T08:48:21.237Z,11.29
2022-10-06T08:53:23.871Z,11.27
2022-10-06T08:58:58.745Z,11.32
2022-10-06T09:04:05.376Z,11.38
2022-10-06T09:09:35.783Z,11.36
2022-10-06T09:14:44.538Z,11.39
2022-10-06T09:20:02.320Z,11.43
2022-10-06T09:25:17.836Z,11.47
2022-10-06T09:30:20.550Z,11.81
2022-10-06T09:35:25.822Z,11.89
2022-10-06T09:40:53.820Z,11.94
2022-10-06T09:46:17.836Z,12.02
2022-10-06T09:51:20.459Z,12.28
2022-10-06T09:56:23.242Z,12.68
2022-10-06T10:01:28.754Z,13.13
2022-10-06T10:06:35.138Z,13.31
2022-10-06T10:11:56.878Z,13.61
2022-10-06T10:17:07.674Z,14.08
2022-10-06T10:22:23.414Z,14.07
2022-10-06T10:28:04.014Z,13.87
2022-10-06T10:33:16.955Z,13.42
2022-10-06T10:38:25.084Z,13.01
2022-10-06T10:43:35.348Z,12.64
2022-10-06T10:49:07.276Z,12.72
2022-10-06T10:54:14.027Z,12.64
2022-10-06T10:59:30.463Z,13.06
2022-10-06T11:04:33.233Z,12.89
2022-10-06T11:09:51.953Z,13.44
2022-10-06T11:15:20.355Z,13.72
2022-10-06T11:20:47.217Z,13.06
2022-10-06T11:26:09.944Z,12.82
2022-10-06T11:31:21.789Z,12.82
2022-10-06T11:36:47.173Z,12.95
2022-10-06T11:41:58.527Z,13.23
2022-10-06T11:47:09.605Z,13.33
2022-10-06T11:52:12.141Z,13.48
2022-10-06T11:57:27.975Z,13.50
2022-10-06T12:02:33.375Z,13.31
2022-10-06T12:07:54.696Z,13.11
2022-10-06T12:14:26.270Z,12.89
2022-10-06T12:19:02.780Z,12.99
2022-10-06T12:24:45.728Z,13.12
2022-10-06T12:29:59.920Z,12.95
2022-10-06T12:35:16.441Z,12.87
2022-10-06T12:40:44.435Z,12.86
2022-10-06T12:45:47.036Z,12.89
2022-10-06T12:50:55.705Z,12.53
2022-10-06T12:56:03.691Z,12.49
2022-10-06T13:01:11.918Z,12.32
2022-10-06T13:06:15.267Z,12.09
2022-10-06T13:11:27.390Z,12.14
2022-10-06T13:16:33.548Z,12.07
2022-10-06T13:21:36.209Z,11.86
2022-10-06T13:26:40.352Z,12.30
2022-10-06T13:31:51.868Z,12.44
2022-10-06T13:36:56.848Z,12.12
2022-10-06T13:42:03.754Z,12.16
2022-10-06T13:47:18.628Z,12.05
2022-10-06T13:52:38.326Z,11.88
2022-10-06T13:57:49.315Z,11.77
2022-10-06T14:02:56.286Z,11.62
2022-10-06T14:08:02.765Z,11.71
2022-10-06T14:13:15.867Z,11.89
2022-10-06T14:18:26.333Z,11.93
2022-10-06T14:23:40.220Z,11.95
2022-10-06T14:28:48.905Z,11.88
2022-10-06T14:33:53.261Z,11.84
2022-10-06T14:38:57.286Z,11.90
2022-10-06T14:44:03.012Z,11.90
2022-10-06T14:49:11.318Z,11.88
2022-10-06T14:54:14.825Z,11.84
2022-10-06T14:59:18.259Z,11.79
2022-10-06T15:04:26.576Z,11.80
2022-10-06T15:09:31.304Z,11.81
2022-10-06T15:14:40.145Z,11.76
2022-10-06T15:19:42.744Z,11.82
2022-10-06T15:24:48.837Z,11.79
2022-10-06T15:29:51.490Z,11.92
2022-10-06T15:34:55.304Z,11.82
2022-10-06T15:39:58.404Z,11.71
2022-10-06T15:45:06.570Z,11.68
2022-10-06T15:50:11.368Z,11.73
2022-10-06T15:55:15.629Z,11.69
2022-10-06T16:00:18.418Z,11.61
2022-10-06T16:05:43.749Z,11.56
2022-10-06T16:10:50.081Z,11.62
2022-10-06T16:15:54.120Z,11.43
2022-10-06T16:20:56.855Z,11.56
2022-10-06T16:26:02.083Z,11.66
2022-10-06T16:31:06.302Z,11.62
2022-10-06T16:36:09.886Z,11.61
2022-10-06T16:41:12.558Z,11.60
2022-10-06T16:46:21.273Z,11.62
2022-10-06T16:51:29.416Z,11.59
2022-10-06T16:56:41.267Z,11.51
2022-10-06T17:01:44.766Z,11.57
2022-10-06T17:06:52.742Z,11.52
2022-10-06T17:12:01.190Z,11.57
2022-10-06T17:17:04.905Z,11.48
2022-10-06T17:22:07.451Z,11.51
2022-10-06T17:27:10.409Z,11.29
2022-10-06T17:32:12.946Z,11.12
2022-10-06T17:37:17.414Z,11.39
2022-10-06T17:42:19.971Z,11.33
2022-10-06T17:47:22.602Z,11.37
2022-10-06T17:52:25.256Z,11.29
2022-10-06T17:57:29.765Z,11.22
2022-10-06T18:02:33.265Z,11.11
2022-10-06T18:07:38.390Z,10.89
2022-10-06T18:12:41.308Z,10.76
2022-10-06T18:17:44.138Z,10.69
2022-10-06T18:22:48.641Z,10.69
2022-10-06T18:27:52.165Z,10.52
2022-10-06T18:38:18.061Z,10.55
2022-10-06T18:43:20.690Z,10.54
2022-10-06T18:48:41.638Z,10.53
2022-10-06T18:53:44.453Z,10.49
2022-10-06T18:58:47.702Z,10.50
2022-10-06T19:03:50.639Z,10.46
2022-10-06T19:09:00.848Z,10.21
2022-10-06T19:14:03.612Z,10.29
2022-10-06T19:19:10.847Z,10.39
2022-10-06T19:24:16.368Z,10.34
2022-10-06T19:29:23.724Z,10.44
2022-10-06T19:34:26.813Z,10.47
2022-10-06T19:39:32.538Z,10.56
2022-10-06T19:44:42.597Z,10.53
2022-10-06T19:49:45.616Z,10.50
2022-10-06T19:54:48.193Z,10.57
2022-10-06T19:59:51.097Z,10.60
2022-10-06T20:04:53.685Z,10.66
2022-10-06T20:09:56.234Z,10.72
2022-10-06T20:14:58.874Z,10.73
2022-10-06T20:20:03.313Z,10.73
2022-10-06T20:25:07.495Z,10.59
2022-10-06T20:30:10.878Z,10.73
2022-10-06T20:35:15.098Z,10.70
2022-10-06T20:40:36.321Z,10.78
2022-10-06T20:45:38.901Z,10.75
2022-10-06T20:50:41.601Z,10.75
2022-10-06T20:55:51.701Z,10.79
2022-10-06T21:00:54.601Z,10.86
2022-10-06T21:05:57.358Z,10.97
2022-10-06T21:11:02.532Z,10.99
2022-10-06T21:16:05.335Z,11.15
2022-10-06T21:21:11.408Z,11.05
2022-10-06T21:26:19.117Z,11.11
2022-10-06T21:31:24.819Z,11.09
2022-10-06T21:36:31.721Z,11.02
2022-10-06T21:41:39.009Z,10.87
2022-10-06T21:46:49.483Z,10.92
2022-10-06T21:51:54.482Z,10.80
2022-10-06T21:56:58.146Z,10.89
2022-10-06T22:02:00.874Z,10.87
2022-10-06T22:07:03.444Z,10.99
2022-10-06T22:12:06.072Z,10.95
2022-10-06T22:17:08.645Z,11.01
2022-10-06T22:22:11.232Z,10.93
2022-10-06T22:27:14.304Z,10.98
2022-10-06T22:32:17.112Z,10.99
2022-10-06T22:37:19.628Z,10.98
2022-10-06T22:42:22.147Z,11.05
2022-10-06T22:47:24.699Z,11.11
2022-10-06T22:52:27.200Z,11.11
2022-10-06T22:57:29.806Z,11.04
2022-10-06T23:02:32.571Z,11.09
2022-10-06T23:07:35.490Z,11.18
2022-10-06T23:12:38.219Z,11.15
2022-10-06T23:17:41.963Z,11.17
2022-10-06T23:22:44.971Z,11.22
2022-10-06T23:27:47.787Z,11.07
2022-10-06T23:32:50.403Z,11.05
2022-10-06T23:37:53.041Z,10.78
2022-10-06T23:42:55.721Z,10.79
2022-10-06T23:48:00.167Z,10.82
2022-10-06T23:53:02.831Z,10.83
2022-10-06T23:58:05.394Z,10.63
